sensor_id;sensor_type;location;lat;lon;timestamp;P1;durP1;ratioP1;P2;durP2;ratioP2
78718;SDS011;68046;53.334;9.538;2024-01-30T00:00:39;11.98;;;5.55;;
78718;SDS011;68046;53.334;9.538;2024-01-30T00:03:04;9.32;;;5.28;;
78718;SDS011;68046;53.334;9.538;2024-01-30T00:05:30;9.85;;;5.95;;
78718;SDS011;68046;53.334;9.538;2024-01-30T00:07:55;10.93;;;6.10;;
78718;SDS011;68046;53.334;9.538;2024-01-30T00:10:21;8.73;;;5.10;;
78718;SDS011;68046;53.334;9.538;2024-01-30T00:12:46;8.43;;;4.97;;
78718;SDS011;68046;53.334;9.538;2024-01-30T00:15:13;13.10;;;6.35;;
78718;SDS011;68046;53.334;9.538;2024-01-30T00:17:39;8.75;;;5.57;;
78718;SDS011;68046;53.334;9.538;2024-01-30T00:20:05;10.13;;;5.47;;
78718;SDS011;68046;53.334;9.538;2024-01-30T00:22:31;15.07;;;5.93;;
78718;SDS011;68046;53.334;9.538;2024-01-30T00:24:56;11.32;;;6.13;;
78718;SDS011;68046;53.334;9.538;2024-01-30T00:27:22;19.80;;;6.25;;
78718;SDS011;68046;53.334;9.538;2024-01-30T00:29:47;8.80;;;5.38;;
78718;SDS011;68046;53.334;9.538;2024-01-30T00:32:14;10.63;;;5.53;;
78718;SDS011;68046;53.334;9.538;2024-01-30T00:34:41;8.57;;;4.93;;
78718;SDS011;68046;53.334;9.538;2024-01-30T00:37:06;9.45;;;5.18;;
78718;SDS011;68046;53.334;9.538;2024-01-30T00:39:32;8.80;;;5.55;;
78718;SDS011;68046;53.334;9.538;2024-01-30T00:41:57;9.02;;;5.22;;
78718;SDS011;68046;53.334;9.538;2024-01-30T00:44:23;14.13;;;5.50;;
78718;SDS011;68046;53.334;9.538;2024-01-30T00:46:48;11.32;;;5.53;;
78718;SDS011;68046;53.334;9.538;2024-01-30T00:49:15;9.95;;;5.43;;
78718;SDS011;68046;53.334;9.538;2024-01-30T00:51:41;9.70;;;5.20;;
78718;SDS011;68046;53.334;9.538;2024-01-30T00:54:06;9.45;;;5.65;;
78718;SDS011;68046;53.334;9.538;2024-01-30T00:56:32;9.30;;;5.45;;
78718;SDS011;68046;53.334;9.538;2024-01-30T00:58:57;12.32;;;5.57;;
78718;SDS011;68046;53.334;9.538;2024-01-30T01:01:23;9.73;;;5.03;;
78718;SDS011;68046;53.334;9.538;2024-01-30T01:03:48;11.02;;;5.47;;
78718;SDS011;68046;53.334;9.538;2024-01-30T01:06:15;13.50;;;5.43;;
78718;SDS011;68046;53.334;9.538;2024-01-30T01:08:41;10.25;;;5.50;;
78718;SDS011;68046;53.334;9.538;2024-01-30T01:11:06;8.75;;;5.70;;
78718;SDS011;68046;53.334;9.538;2024-01-30T01:13:31;9.07;;;5.55;;
78718;SDS011;68046;53.334;9.538;2024-01-30T01:15:57;10.25;;;6.05;;
78718;SDS011;68046;53.334;9.538;2024-01-30T01:18:22;11.90;;;5.93;;
78718;SDS011;68046;53.334;9.538;2024-01-30T01:20:48;14.27;;;5.72;;
78718;SDS011;68046;53.334;9.538;2024-01-30T01:23:15;9.48;;;5.32;;
78718;SDS011;68046;53.334;9.538;2024-01-30T01:25:41;11.57;;;5.97;;
78718;SDS011;68046;53.334;9.538;2024-01-30T01:28:06;12.60;;;5.03;;
78718;SDS011;68046;53.334;9.538;2024-01-30T01:30:32;9.85;;;5.43;;
78718;SDS011;68046;53.334;9.538;2024-01-30T01:32:57;9.50;;;5.97;;
78718;SDS011;68046;53.334;9.538;2024-01-30T01:35:23;22.45;;;5.93;;
78718;SDS011;68046;53.334;9.538;2024-01-30T01:37:49;8.77;;;5.75;;
78718;SDS011;68046;53.334;9.538;2024-01-30T01:40:16;8.20;;;5.13;;
78718;SDS011;68046;53.334;9.538;2024-01-30T01:42:41;11.88;;;6.15;;
78718;SDS011;68046;53.334;9.538;2024-01-30T01:45:07;12.63;;;6.95;;
78718;SDS011;68046;53.334;9.538;2024-01-30T01:47:33;9.18;;;5.82;;
78718;SDS011;68046;53.334;9.538;2024-01-30T01:49:59;12.50;;;6.05;;
78718;SDS011;68046;53.334;9.538;2024-01-30T01:52:24;14.00;;;6.13;;
78718;SDS011;68046;53.334;9.538;2024-01-30T01:54:50;10.20;;;5.95;;
78718;SDS011;68046;53.334;9.538;2024-01-30T01:57:17;10.77;;;6.28;;
78718;SDS011;68046;53.334;9.538;2024-01-30T01:59:42;12.40;;;5.95;;
78718;SDS011;68046;53.334;9.538;2024-01-30T02:02:08;12.15;;;6.68;;
78718;SDS011;68046;53.334;9.538;2024-01-30T02:04:36;16.25;;;6.45;;
78718;SDS011;68046;53.334;9.538;2024-01-30T02:07:02;10.30;;;6.22;;
78718;SDS011;68046;53.334;9.538;2024-01-30T02:09:27;13.07;;;6.85;;
78718;SDS011;68046;53.334;9.538;2024-01-30T02:11:53;14.52;;;7.25;;
78718;SDS011;68046;53.334;9.538;2024-01-30T02:14:20;15.05;;;5.97;;
78718;SDS011;68046;53.334;9.538;2024-01-30T02:16:45;13.10;;;6.78;;
78718;SDS011;68046;53.334;9.538;2024-01-30T02:19:11;14.48;;;7.22;;
78718;SDS011;68046;53.334;9.538;2024-01-30T02:21:38;11.07;;;6.32;;
78718;SDS011;68046;53.334;9.538;2024-01-30T02:24:04;9.80;;;5.70;;
78718;SDS011;68046;53.334;9.538;2024-01-30T02:26:30;17.15;;;6.75;;
78718;SDS011;68046;53.334;9.538;2024-01-30T02:28:56;11.50;;;6.82;;
78718;SDS011;68046;53.334;9.538;2024-01-30T02:31:21;11.25;;;6.40;;
78718;SDS011;68046;53.334;9.538;2024-01-30T02:33:47;13.75;;;6.68;;
78718;SDS011;68046;53.334;9.538;2024-01-30T02:36:12;14.77;;;6.93;;
78718;SDS011;68046;53.334;9.538;2024-01-30T02:38:39;10.48;;;5.55;;
78718;SDS011;68046;53.334;9.538;2024-01-30T02:41:05;12.98;;;6.43;;
78718;SDS011;68046;53.334;9.538;2024-01-30T02:43:30;13.90;;;6.82;;
78718;SDS011;68046;53.334;9.538;2024-01-30T02:45:56;14.57;;;7.40;;
78718;SDS011;68046;53.334;9.538;2024-01-30T02:48:21;11.52;;;5.88;;
78718;SDS011;68046;53.334;9.538;2024-01-30T02:50:46;12.02;;;6.75;;
78718;SDS011;68046;53.334;9.538;2024-01-30T02:53:12;16.05;;;6.80;;
78718;SDS011;68046;53.334;9.538;2024-01-30T02:55:39;12.45;;;6.70;;
78718;SDS011;68046;53.334;9.538;2024-01-30T02:58:04;14.73;;;7.05;;
78718;SDS011;68046;53.334;9.538;2024-01-30T03:00:30;13.80;;;7.00;;
78718;SDS011;68046;53.334;9.538;2024-01-30T03:02:55;13.23;;;7.55;;
78718;SDS011;68046;53.334;9.538;2024-01-30T03:05:21;12.25;;;6.20;;
78718;SDS011;68046;53.334;9.538;2024-01-30T03:07:46;14.48;;;6.95;;
78718;SDS011;68046;53.334;9.538;2024-01-30T03:10:12;15.05;;;7.70;;
78718;SDS011;68046;53.334;9.538;2024-01-30T03:12:39;12.80;;;7.47;;
78718;SDS011;68046;53.334;9.538;2024-01-30T03:15:05;15.48;;;7.88;;
78718;SDS011;68046;53.334;9.538;2024-01-30T03:17:30;17.15;;;7.50;;
78718;SDS011;68046;53.334;9.538;2024-01-30T03:19:56;13.15;;;7.65;;
78718;SDS011;68046;53.334;9.538;2024-01-30T03:22:22;14.20;;;6.32;;
78718;SDS011;68046;53.334;9.538;2024-01-30T03:24:47;16.65;;;7.35;;
78718;SDS011;68046;53.334;9.538;2024-01-30T03:27:13;12.65;;;7.35;;
78718;SDS011;68046;53.334;9.538;2024-01-30T03:29:40;12.20;;;7.13;;
78718;SDS011;68046;53.334;9.538;2024-01-30T03:32:05;15.35;;;7.43;;
78718;SDS011;68046;53.334;9.538;2024-01-30T03:34:31;15.40;;;7.00;;
78718;SDS011;68046;53.334;9.538;2024-01-30T03:36:56;11.85;;;6.85;;
78718;SDS011;68046;53.334;9.538;2024-01-30T03:39:22;13.52;;;7.95;;
78718;SDS011;68046;53.334;9.538;2024-01-30T03:41:48;16.20;;;7.82;;
78718;SDS011;68046;53.334;9.538;2024-01-30T03:44:13;15.68;;;7.60;;
78718;SDS011;68046;53.334;9.538;2024-01-30T03:46:40;13.75;;;7.68;;
78718;SDS011;68046;53.334;9.538;2024-01-30T03:49:06;14.88;;;7.38;;
78718;SDS011;68046;53.334;9.538;2024-01-30T03:51:31;14.52;;;7.60;;
78718;SDS011;68046;53.334;9.538;2024-01-30T03:53:57;13.70;;;7.38;;
78718;SDS011;68046;53.334;9.538;2024-01-30T03:56:22;15.02;;;7.78;;
78718;SDS011;68046;53.334;9.538;2024-01-30T03:58:48;14.82;;;7.57;;
78718;SDS011;68046;53.334;9.538;2024-01-30T04:01:13;16.83;;;7.85;;
78718;SDS011;68046;53.334;9.538;2024-01-30T04:03:40;18.48;;;8.40;;
78718;SDS011;68046;53.334;9.538;2024-01-30T04:06:06;16.00;;;8.15;;
78718;SDS011;68046;53.334;9.538;2024-01-30T04:08:31;13.13;;;7.57;;
78718;SDS011;68046;53.334;9.538;2024-01-30T04:10:57;12.90;;;7.78;;
78718;SDS011;68046;53.334;9.538;2024-01-30T04:13:22;13.27;;;7.47;;
78718;SDS011;68046;53.334;9.538;2024-01-30T04:15:48;14.52;;;7.90;;
78718;SDS011;68046;53.334;9.538;2024-01-30T04:18:13;11.35;;;7.13;;
78718;SDS011;68046;53.334;9.538;2024-01-30T04:20:40;14.85;;;7.93;;
78718;SDS011;68046;53.334;9.538;2024-01-30T04:23:06;17.02;;;7.75;;
78718;SDS011;68046;53.334;9.538;2024-01-30T04:25:31;18.13;;;7.28;;
78718;SDS011;68046;53.334;9.538;2024-01-30T04:27:57;16.38;;;8.13;;
78718;SDS011;68046;53.334;9.538;2024-01-30T04:30:22;13.40;;;7.32;;
78718;SDS011;68046;53.334;9.538;2024-01-30T04:32:47;12.50;;;6.78;;
78718;SDS011;68046;53.334;9.538;2024-01-30T04:35:13;16.60;;;7.68;;
78718;SDS011;68046;53.334;9.538;2024-01-30T04:37:40;16.08;;;7.97;;
78718;SDS011;68046;53.334;9.538;2024-01-30T04:40:06;15.18;;;8.05;;
78718;SDS011;68046;53.334;9.538;2024-01-30T04:42:32;16.17;;;8.45;;
78718;SDS011;68046;53.334;9.538;2024-01-30T04:44:57;15.43;;;7.63;;
78718;SDS011;68046;53.334;9.538;2024-01-30T04:47:23;17.60;;;8.27;;
78718;SDS011;68046;53.334;9.538;2024-01-30T04:49:48;14.52;;;7.65;;
78718;SDS011;68046;53.334;9.538;2024-01-30T04:52:14;15.98;;;8.55;;
78718;SDS011;68046;53.334;9.538;2024-01-30T04:54:41;14.43;;;7.20;;
78718;SDS011;68046;53.334;9.538;2024-01-30T04:57:06;15.50;;;8.30;;
78718;SDS011;68046;53.334;9.538;2024-01-30T04:59:32;14.27;;;8.20;;
78718;SDS011;68046;53.334;9.538;2024-01-30T05:01:57;17.65;;;8.43;;
78718;SDS011;68046;53.334;9.538;2024-01-30T05:04:22;14.65;;;7.60;;
78718;SDS011;68046;53.334;9.538;2024-01-30T05:06:48;14.60;;;8.27;;
78718;SDS011;68046;53.334;9.538;2024-01-30T05:09:13;17.45;;;8.20;;
78718;SDS011;68046;53.334;9.538;2024-01-30T05:11:40;14.63;;;8.45;;
78718;SDS011;68046;53.334;9.538;2024-01-30T05:14:06;13.05;;;7.68;;
78718;SDS011;68046;53.334;9.538;2024-01-30T05:16:32;15.98;;;7.10;;
78718;SDS011;68046;53.334;9.538;2024-01-30T05:18:58;17.27;;;8.32;;
78718;SDS011;68046;53.334;9.538;2024-01-30T05:21:23;18.00;;;8.23;;
78718;SDS011;68046;53.334;9.538;2024-01-30T05:23:49;12.90;;;7.63;;
78718;SDS011;68046;53.334;9.538;2024-01-30T05:26:14;22.83;;;8.95;;
78718;SDS011;68046;53.334;9.538;2024-01-30T05:28:41;14.85;;;7.72;;
78718;SDS011;68046;53.334;9.538;2024-01-30T05:31:07;16.20;;;9.10;;
78718;SDS011;68046;53.334;9.538;2024-01-30T05:33:33;17.42;;;8.95;;
78718;SDS011;68046;53.334;9.538;2024-01-30T05:35:58;16.45;;;8.57;;
78718;SDS011;68046;53.334;9.538;2024-01-30T05:38:24;20.13;;;8.88;;
78718;SDS011;68046;53.334;9.538;2024-01-30T05:40:49;17.38;;;9.40;;
78718;SDS011;68046;53.334;9.538;2024-01-30T05:43:15;18.33;;;8.35;;
78718;SDS011;68046;53.334;9.538;2024-01-30T05:45:41;14.52;;;8.50;;
78718;SDS011;68046;53.334;9.538;2024-01-30T05:48:07;14.45;;;8.23;;
78718;SDS011;68046;53.334;9.538;2024-01-30T05:50:32;15.85;;;8.57;;
78718;SDS011;68046;53.334;9.538;2024-01-30T05:52:58;16.70;;;7.95;;
78718;SDS011;68046;53.334;9.538;2024-01-30T05:55:23;13.75;;;8.23;;
78718;SDS011;68046;53.334;9.538;2024-01-30T05:57:49;16.13;;;7.95;;
78718;SDS011;68046;53.334;9.538;2024-01-30T06:00:15;16.50;;;8.73;;
78718;SDS011;68046;53.334;9.538;2024-01-30T06:02:42;17.42;;;8.90;;
78718;SDS011;68046;53.334;9.538;2024-01-30T06:05:08;13.60;;;8.20;;
78718;SDS011;68046;53.334;9.538;2024-01-30T06:07:34;15.95;;;8.20;;
78718;SDS011;68046;53.334;9.538;2024-01-30T06:09:59;20.70;;;8.90;;
78718;SDS011;68046;53.334;9.538;2024-01-30T06:12:25;16.52;;;8.85;;
78718;SDS011;68046;53.334;9.538;2024-01-30T06:14:50;20.05;;;9.35;;
78718;SDS011;68046;53.334;9.538;2024-01-30T06:17:16;18.35;;;8.65;;
78718;SDS011;68046;53.334;9.538;2024-01-30T06:19:42;19.98;;;9.05;;
78718;SDS011;68046;53.334;9.538;2024-01-30T06:22:08;21.55;;;9.23;;
78718;SDS011;68046;53.334;9.538;2024-01-30T06:24:33;19.55;;;8.85;;
78718;SDS011;68046;53.334;9.538;2024-01-30T06:26:59;18.58;;;8.60;;
78718;SDS011;68046;53.334;9.538;2024-01-30T06:29:26;15.27;;;8.38;;
78718;SDS011;68046;53.334;9.538;2024-01-30T06:31:51;18.05;;;9.15;;
78718;SDS011;68046;53.334;9.538;2024-01-30T06:34:17;21.10;;;9.80;;
78718;SDS011;68046;53.334;9.538;2024-01-30T06:36:43;16.58;;;8.90;;
78718;SDS011;68046;53.334;9.538;2024-01-30T06:39:09;21.15;;;10.07;;
78718;SDS011;68046;53.334;9.538;2024-01-30T06:41:34;16.88;;;8.93;;
78718;SDS011;68046;53.334;9.538;2024-01-30T06:44:01;14.20;;;8.57;;
78718;SDS011;68046;53.334;9.538;2024-01-30T06:46:27;16.88;;;8.20;;
78718;SDS011;68046;53.334;9.538;2024-01-30T06:48:52;16.00;;;8.55;;
78718;SDS011;68046;53.334;9.538;2024-01-30T06:51:18;23.08;;;8.90;;
78718;SDS011;68046;53.334;9.538;2024-01-30T06:53:45;18.45;;;8.45;;
78718;SDS011;68046;53.334;9.538;2024-01-30T06:56:10;16.77;;;8.57;;
78718;SDS011;68046;53.334;9.538;2024-01-30T06:58:36;14.88;;;9.13;;
78718;SDS011;68046;53.334;9.538;2024-01-30T07:01:01;15.60;;;9.43;;
78718;SDS011;68046;53.334;9.538;2024-01-30T07:03:27;16.13;;;8.95;;
78718;SDS011;68046;53.334;9.538;2024-01-30T07:05:52;18.30;;;10.02;;
78718;SDS011;68046;53.334;9.538;2024-01-30T07:08:18;17.08;;;9.18;;
78718;SDS011;68046;53.334;9.538;2024-01-30T07:10:45;23.98;;;8.23;;
78718;SDS011;68046;53.334;9.538;2024-01-30T07:13:10;21.95;;;8.50;;
78718;SDS011;68046;53.334;9.538;2024-01-30T07:15:36;19.08;;;10.38;;
78718;SDS011;68046;53.334;9.538;2024-01-30T07:18:01;16.83;;;8.60;;
78718;SDS011;68046;53.334;9.538;2024-01-30T07:20:27;21.65;;;9.43;;
78718;SDS011;68046;53.334;9.538;2024-01-30T07:22:52;15.77;;;9.68;;
78718;SDS011;68046;53.334;9.538;2024-01-30T07:25:17;22.13;;;9.98;;
78718;SDS011;68046;53.334;9.538;2024-01-30T07:27:44;18.58;;;9.65;;
78718;SDS011;68046;53.334;9.538;2024-01-30T07:30:10;18.25;;;9.15;;
78718;SDS011;68046;53.334;9.538;2024-01-30T07:32:36;21.75;;;9.40;;
78718;SDS011;68046;53.334;9.538;2024-01-30T07:35:01;16.10;;;8.75;;
78718;SDS011;68046;53.334;9.538;2024-01-30T07:37:27;21.55;;;10.50;;
78718;SDS011;68046;53.334;9.538;2024-01-30T07:39:52;16.50;;;9.40;;
78718;SDS011;68046;53.334;9.538;2024-01-30T07:42:17;18.60;;;8.85;;
78718;SDS011;68046;53.334;9.538;2024-01-30T07:44:44;15.98;;;8.23;;
78718;SDS011;68046;53.334;9.538;2024-01-30T07:47:10;19.70;;;9.95;;
78718;SDS011;68046;53.334;9.538;2024-01-30T07:49:36;19.08;;;10.00;;
78718;SDS011;68046;53.334;9.538;2024-01-30T07:52:02;17.55;;;9.25;;
78718;SDS011;68046;53.334;9.538;2024-01-30T07:54:30;18.77;;;9.27;;
78718;SDS011;68046;53.334;9.538;2024-01-30T07:56:56;18.75;;;9.20;;
78718;SDS011;68046;53.334;9.538;2024-01-30T07:59:21;15.38;;;8.23;;
78718;SDS011;68046;53.334;9.538;2024-01-30T08:01:48;21.77;;;10.38;;
78718;SDS011;68046;53.334;9.538;2024-01-30T08:04:14;19.55;;;10.73;;
78718;SDS011;68046;53.334;9.538;2024-01-30T08:06:39;16.73;;;8.52;;
78718;SDS011;68046;53.334;9.538;2024-01-30T08:09:05;22.63;;;9.82;;
78718;SDS011;68046;53.334;9.538;2024-01-30T08:11:30;22.90;;;10.05;;
78718;SDS011;68046;53.334;9.538;2024-01-30T08:13:56;18.20;;;9.80;;
78718;SDS011;68046;53.334;9.538;2024-01-30T08:16:21;24.63;;;9.73;;
78718;SDS011;68046;53.334;9.538;2024-01-30T08:18:48;15.68;;;9.88;;
78718;SDS011;68046;53.334;9.538;2024-01-30T08:21:14;17.67;;;8.98;;
78718;SDS011;68046;53.334;9.538;2024-01-30T08:23:39;17.80;;;9.00;;
78718;SDS011;68046;53.334;9.538;2024-01-30T08:26:05;19.98;;;9.95;;
78718;SDS011;68046;53.334;9.538;2024-01-30T08:28:30;17.20;;;9.13;;
78718;SDS011;68046;53.334;9.538;2024-01-30T08:30:56;17.17;;;8.75;;
78718;SDS011;68046;53.334;9.538;2024-01-30T08:33:21;17.13;;;8.80;;
78718;SDS011;68046;53.334;9.538;2024-01-30T08:35:48;20.55;;;9.35;;
78718;SDS011;68046;53.334;9.538;2024-01-30T08:38:14;15.55;;;8.38;;
78718;SDS011;68046;53.334;9.538;2024-01-30T08:40:39;14.93;;;9.20;;
78718;SDS011;68046;53.334;9.538;2024-01-30T08:43:05;16.85;;;9.73;;
78718;SDS011;68046;53.334;9.538;2024-01-30T08:45:30;21.55;;;9.73;;
78718;SDS011;68046;53.334;9.538;2024-01-30T08:47:56;16.77;;;8.98;;
78718;SDS011;68046;53.334;9.538;2024-01-30T08:50:21;16.50;;;8.55;;
78718;SDS011;68046;53.334;9.538;2024-01-30T08:52:48;17.67;;;10.13;;
78718;SDS011;68046;53.334;9.538;2024-01-30T08:55:14;21.13;;;9.70;;
78718;SDS011;68046;53.334;9.538;2024-01-30T08:57:39;21.33;;;9.45;;
78718;SDS011;68046;53.334;9.538;2024-01-30T09:00:05;16.35;;;9.13;;
78718;SDS011;68046;53.334;9.538;2024-01-30T09:02:31;18.70;;;9.02;;
78718;SDS011;68046;53.334;9.538;2024-01-30T09:04:57;16.58;;;9.40;;
78718;SDS011;68046;53.334;9.538;2024-01-30T09:07:22;15.35;;;9.40;;
78718;SDS011;68046;53.334;9.538;2024-01-30T09:09:49;15.13;;;8.63;;
78718;SDS011;68046;53.334;9.538;2024-01-30T09:12:15;17.48;;;9.02;;
78718;SDS011;68046;53.334;9.538;2024-01-30T09:14:40;15.65;;;8.25;;
78718;SDS011;68046;53.334;9.538;2024-01-30T09:17:06;16.33;;;8.80;;
78718;SDS011;68046;53.334;9.538;2024-01-30T09:19:31;20.33;;;8.77;;
78718;SDS011;68046;53.334;9.538;2024-01-30T09:21:57;17.15;;;8.73;;
78718;SDS011;68046;53.334;9.538;2024-01-30T09:24:22;19.98;;;9.23;;
78718;SDS011;68046;53.334;9.538;2024-01-30T09:26:49;17.27;;;10.23;;
78718;SDS011;68046;53.334;9.538;2024-01-30T09:29:15;15.27;;;9.00;;
78718;SDS011;68046;53.334;9.538;2024-01-30T09:31:42;16.30;;;8.30;;
78718;SDS011;68046;53.334;9.538;2024-01-30T09:34:08;18.77;;;10.20;;
78718;SDS011;68046;53.334;9.538;2024-01-30T09:36:33;14.95;;;8.75;;
78718;SDS011;68046;53.334;9.538;2024-01-30T09:38:59;17.52;;;9.00;;
78718;SDS011;68046;53.334;9.538;2024-01-30T09:41:24;20.00;;;8.65;;
78718;SDS011;68046;53.334;9.538;2024-01-30T09:43:53;17.60;;;8.95;;
78718;SDS011;68046;53.334;9.538;2024-01-30T09:46:22;19.50;;;7.80;;
78718;SDS011;68046;53.334;9.538;2024-01-30T09:48:51;21.98;;;9.57;;
78718;SDS011;68046;53.334;9.538;2024-01-30T09:51:17;17.05;;;8.88;;
78718;SDS011;68046;53.334;9.538;2024-01-30T09:53:44;14.25;;;7.57;;
78718;SDS011;68046;53.334;9.538;2024-01-30T09:56:10;17.08;;;8.82;;
78718;SDS011;68046;53.334;9.538;2024-01-30T09:58:37;16.02;;;8.95;;
78718;SDS011;68046;53.334;9.538;2024-01-30T10:01:04;18.13;;;8.50;;
78718;SDS011;68046;53.334;9.538;2024-01-30T10:03:29;13.80;;;8.52;;
78718;SDS011;68046;53.334;9.538;2024-01-30T10:05:55;21.63;;;9.05;;
78718;SDS011;68046;53.334;9.538;2024-01-30T10:08:21;18.98;;;8.77;;
78718;SDS011;68046;53.334;9.538;2024-01-30T10:10:46;17.30;;;8.50;;
78718;SDS011;68046;53.334;9.538;2024-01-30T10:13:12;15.88;;;7.65;;
78718;SDS011;68046;53.334;9.538;2024-01-30T10:15:38;19.70;;;9.57;;
78718;SDS011;68046;53.334;9.538;2024-01-30T10:18:05;16.23;;;8.63;;
78718;SDS011;68046;53.334;9.538;2024-01-30T10:20:30;17.77;;;8.52;;
78718;SDS011;68046;53.334;9.538;2024-01-30T10:22:56;18.83;;;9.10;;
78718;SDS011;68046;53.334;9.538;2024-01-30T10:25:21;20.48;;;8.88;;
78718;SDS011;68046;53.334;9.538;2024-01-30T10:27:47;20.23;;;8.93;;
78718;SDS011;68046;53.334;9.538;2024-01-30T10:30:17;15.38;;;8.15;;
78718;SDS011;68046;53.334;9.538;2024-01-30T10:32:43;13.80;;;8.80;;
78718;SDS011;68046;53.334;9.538;2024-01-30T10:35:10;22.42;;;10.20;;
78718;SDS011;68046;53.334;9.538;2024-01-30T10:37:35;17.95;;;9.20;;
78718;SDS011;68046;53.334;9.538;2024-01-30T10:40:02;19.55;;;9.50;;
78718;SDS011;68046;53.334;9.538;2024-01-30T10:42:28;16.85;;;8.43;;
78718;SDS011;68046;53.334;9.538;2024-01-30T10:44:59;16.00;;;8.48;;
78718;SDS011;68046;53.334;9.538;2024-01-30T10:47:27;17.35;;;8.82;;
78718;SDS011;68046;53.334;9.538;2024-01-30T10:49:54;15.23;;;8.95;;
78718;SDS011;68046;53.334;9.538;2024-01-30T10:52:22;16.88;;;8.30;;
78718;SDS011;68046;53.334;9.538;2024-01-30T10:54:49;20.05;;;8.63;;
78718;SDS011;68046;53.334;9.538;2024-01-30T10:57:16;15.57;;;8.68;;
78718;SDS011;68046;53.334;9.538;2024-01-30T10:59:42;21.63;;;8.70;;
78718;SDS011;68046;53.334;9.538;2024-01-30T11:02:08;17.30;;;8.55;;
78718;SDS011;68046;53.334;9.538;2024-01-30T11:04:35;19.55;;;8.55;;
78718;SDS011;68046;53.334;9.538;2024-01-30T11:07:01;18.55;;;8.07;;
78718;SDS011;68046;53.334;9.538;2024-01-30T11:09:28;15.45;;;8.25;;
78718;SDS011;68046;53.334;9.538;2024-01-30T11:11:55;18.73;;;8.75;;
78718;SDS011;68046;53.334;9.538;2024-01-30T11:14:22;17.70;;;8.57;;
78718;SDS011;68046;53.334;9.538;2024-01-30T11:16:48;18.92;;;8.95;;
78718;SDS011;68046;53.334;9.538;2024-01-30T11:19:14;16.38;;;8.75;;
78718;SDS011;68046;53.334;9.538;2024-01-30T11:21:41;16.85;;;9.88;;
78718;SDS011;68046;53.334;9.538;2024-01-30T11:24:07;13.57;;;8.02;;
78718;SDS011;68046;53.334;9.538;2024-01-30T11:26:34;17.00;;;9.48;;
78718;SDS011;68046;53.334;9.538;2024-01-30T11:29:02;12.90;;;8.18;;
78718;SDS011;68046;53.334;9.538;2024-01-30T11:31:28;15.73;;;8.77;;
78718;SDS011;68046;53.334;9.538;2024-01-30T11:33:54;14.30;;;7.72;;
78718;SDS011;68046;53.334;9.538;2024-01-30T11:36:21;16.35;;;7.97;;
78718;SDS011;68046;53.334;9.538;2024-01-30T11:38:51;14.63;;;8.68;;
78718;SDS011;68046;53.334;9.538;2024-01-30T11:41:16;14.63;;;7.82;;
78718;SDS011;68046;53.334;9.538;2024-01-30T11:43:44;16.25;;;8.25;;
78718;SDS011;68046;53.334;9.538;2024-01-30T11:46:16;18.25;;;8.57;;
78718;SDS011;68046;53.334;9.538;2024-01-30T11:48:42;18.33;;;8.43;;
78718;SDS011;68046;53.334;9.538;2024-01-30T11:51:07;13.52;;;7.72;;
78718;SDS011;68046;53.334;9.538;2024-01-30T11:53:33;15.27;;;8.02;;
78718;SDS011;68046;53.334;9.538;2024-01-30T11:55:58;18.30;;;8.35;;
78718;SDS011;68046;53.334;9.538;2024-01-30T11:58:24;14.63;;;8.18;;
78718;SDS011;68046;53.334;9.538;2024-01-30T12:00:55;14.07;;;8.07;;
78718;SDS011;68046;53.334;9.538;2024-01-30T12:05:46;21.13;;;7.78;;
78718;SDS011;68046;53.334;9.538;2024-01-30T12:08:14;14.88;;;7.45;;
78718;SDS011;68046;53.334;9.538;2024-01-30T12:10:40;15.20;;;8.27;;
78718;SDS011;68046;53.334;9.538;2024-01-30T12:13:06;14.88;;;7.85;;
78718;SDS011;68046;53.334;9.538;2024-01-30T12:15:32;14.60;;;7.15;;
78718;SDS011;68046;53.334;9.538;2024-01-30T12:18:05;14.15;;;7.07;;
78718;SDS011;68046;53.334;9.538;2024-01-30T12:20:31;15.18;;;7.50;;
78718;SDS011;68046;53.334;9.538;2024-01-30T12:22:56;14.50;;;7.95;;
78718;SDS011;68046;53.334;9.538;2024-01-30T12:25:22;13.32;;;7.82;;
78718;SDS011;68046;53.334;9.538;2024-01-30T12:27:48;12.63;;;7.50;;
78718;SDS011;68046;53.334;9.538;2024-01-30T12:30:14;15.57;;;8.43;;
78718;SDS011;68046;53.334;9.538;2024-01-30T12:32:40;12.98;;;7.70;;
78718;SDS011;68046;53.334;9.538;2024-01-30T12:35:09;14.13;;;7.63;;
78718;SDS011;68046;53.334;9.538;2024-01-30T12:37:35;16.58;;;7.68;;
78718;SDS011;68046;53.334;9.538;2024-01-30T12:40:01;15.88;;;6.95;;
78718;SDS011;68046;53.334;9.538;2024-01-30T12:42:26;17.38;;;8.07;;
78718;SDS011;68046;53.334;9.538;2024-01-30T12:44:52;15.55;;;7.85;;
78718;SDS011;68046;53.334;9.538;2024-01-30T12:47:18;12.57;;;6.60;;
78718;SDS011;68046;53.334;9.538;2024-01-30T12:49:46;15.30;;;7.88;;
78718;SDS011;68046;53.334;9.538;2024-01-30T12:52:13;17.65;;;7.88;;
78718;SDS011;68046;53.334;9.538;2024-01-30T12:54:39;14.13;;;8.48;;
78718;SDS011;68046;53.334;9.538;2024-01-30T12:57:05;18.55;;;8.30;;
78718;SDS011;68046;53.334;9.538;2024-01-30T12:59:31;15.60;;;7.82;;
78718;SDS011;68046;53.334;9.538;2024-01-30T13:01:56;14.27;;;8.45;;
78718;SDS011;68046;53.334;9.538;2024-01-30T13:04:22;16.92;;;7.00;;
78718;SDS011;68046;53.334;9.538;2024-01-30T13:06:48;13.13;;;7.97;;
78718;SDS011;68046;53.334;9.538;2024-01-30T13:09:15;15.32;;;7.28;;
78718;SDS011;68046;53.334;9.538;2024-01-30T13:11:40;14.55;;;7.30;;
78718;SDS011;68046;53.334;9.538;2024-01-30T13:14:06;13.55;;;8.10;;
78718;SDS011;68046;53.334;9.538;2024-01-30T13:16:31;13.55;;;7.25;;
78718;SDS011;68046;53.334;9.538;2024-01-30T13:18:57;15.75;;;7.90;;
78718;SDS011;68046;53.334;9.538;2024-01-30T13:21:22;19.40;;;7.70;;
78718;SDS011;68046;53.334;9.538;2024-01-30T13:23:48;14.73;;;7.80;;
78718;SDS011;68046;53.334;9.538;2024-01-30T13:26:15;21.45;;;7.88;;
78718;SDS011;68046;53.334;9.538;2024-01-30T13:28:40;14.35;;;7.70;;
78718;SDS011;68046;53.334;9.538;2024-01-30T13:31:06;11.93;;;7.40;;
78718;SDS011;68046;53.334;9.538;2024-01-30T13:33:31;17.77;;;8.63;;
78718;SDS011;68046;53.334;9.538;2024-01-30T13:35:57;17.77;;;8.05;;
78718;SDS011;68046;53.334;9.538;2024-01-30T13:38:22;14.73;;;7.57;;
78718;SDS011;68046;53.334;9.538;2024-01-30T13:40:48;14.07;;;8.18;;
78718;SDS011;68046;53.334;9.538;2024-01-30T13:43:14;19.02;;;8.52;;
78718;SDS011;68046;53.334;9.538;2024-01-30T13:45:40;18.42;;;7.50;;
78718;SDS011;68046;53.334;9.538;2024-01-30T13:48:06;13.50;;;7.57;;
78718;SDS011;68046;53.334;9.538;2024-01-30T13:50:31;15.85;;;7.50;;
78718;SDS011;68046;53.334;9.538;2024-01-30T13:52:57;14.05;;;7.63;;
78718;SDS011;68046;53.334;9.538;2024-01-30T13:55:22;15.57;;;7.60;;
78718;SDS011;68046;53.334;9.538;2024-01-30T13:57:48;15.80;;;7.55;;
78718;SDS011;68046;53.334;9.538;2024-01-30T14:00:15;20.67;;;8.82;;
78718;SDS011;68046;53.334;9.538;2024-01-30T14:02:41;12.25;;;7.15;;
78718;SDS011;68046;53.334;9.538;2024-01-30T14:05:06;17.35;;;8.05;;
78718;SDS011;68046;53.334;9.538;2024-01-30T14:07:32;13.63;;;7.57;;
78718;SDS011;68046;53.334;9.538;2024-01-30T14:09:57;13.50;;;7.72;;
78718;SDS011;68046;53.334;9.538;2024-01-30T14:12:23;18.55;;;8.05;;
78718;SDS011;68046;53.334;9.538;2024-01-30T14:14:48;13.70;;;7.50;;
78718;SDS011;68046;53.334;9.538;2024-01-30T14:17:15;17.85;;;7.78;;
78718;SDS011;68046;53.334;9.538;2024-01-30T14:19:41;19.52;;;7.47;;
78718;SDS011;68046;53.334;9.538;2024-01-30T14:22:06;15.13;;;7.93;;
78718;SDS011;68046;53.334;9.538;2024-01-30T14:24:32;13.85;;;7.82;;
78718;SDS011;68046;53.334;9.538;2024-01-30T14:26:57;15.35;;;7.97;;
78718;SDS011;68046;53.334;9.538;2024-01-30T14:29:23;15.25;;;7.47;;